createdAt,value
2018-09-09T00:00:57.729Z,1009.64
2018-09-09T00:01:57.730Z,1009.65
2018-09-09T00:02:57.729Z,1009.64
2018-09-09T00:03:57.729Z,1009.67
2018-09-09T00:04:57.728Z,1009.70
2018-09-09T00:05:57.725Z,1009.72
2018-09-09T00:06:57.723Z,1009.71
2018-09-09T00:07:57.724Z,1009.71
2018-09-09T00:08:57.721Z,1009.62
2018-09-09T00:09:57.720Z,1009.67
2018-09-09T00:10:57.718Z,1009.66
2018-09-09T00:11:57.718Z,1009.67
2018-09-09T00:12:57.716Z,1009.64
2018-09-09T00:13:57.714Z,1009.65
2018-09-09T00:14:57.715Z,1009.64
2018-09-09T00:15:57.713Z,1009.63
2018-09-09T00:16:57.713Z,1009.69
2018-09-09T00:17:57.711Z,1009.69
2018-09-09T00:18:57.709Z,1009.69
2018-09-09T00:19:57.707Z,1009.71
2018-09-09T00:20:57.706Z,1009.71
2018-09-09T00:21:57.704Z,1009.65
2018-09-09T00:22:57.704Z,1009.61
2018-09-09T00:23:57.703Z,1009.61
2018-09-09T00:24:57.702Z,1009.59
2018-09-09T00:25:57.699Z,1009.59
2018-09-09T00:26:57.704Z,1009.57
2018-09-09T00:27:57.698Z,1009.56
2018-09-09T00:28:57.696Z,1009.56
2018-09-09T00:29:57.694Z,1009.57
2018-09-09T00:30:57.699Z,1009.57
2018-09-09T00:31:57.693Z,1009.57
2018-09-09T00:32:57.690Z,1009.58
2018-09-09T00:33:57.690Z,1009.60
2018-09-09T00:34:57.692Z,1009.61
2018-09-09T00:35:57.690Z,1009.60
2018-09-09T00:36:57.684Z,1009.59
2018-09-09T00:37:57.684Z,1009.60
2018-09-09T00:38:57.682Z,1009.63
2018-09-09T00:39:57.681Z,1009.58
2018-09-09T00:40:57.679Z,1009.60
2018-09-09T00:41:57.678Z,1009.62
2018-09-09T00:42:57.676Z,1009.62
2018-09-09T00:43:57.674Z,1009.60
2018-09-09T00:44:57.671Z,1009.61
2018-09-09T00:45:57.673Z,1009.63
2018-09-09T00:46:57.673Z,1009.63
2018-09-09T00:47:57.669Z,1009.62
2018-09-09T00:48:57.667Z,1009.60
2018-09-09T00:49:57.667Z,1009.58
2018-09-09T00:50:57.664Z,1009.57
2018-09-09T00:51:57.663Z,1009.58
2018-09-09T00:52:57.664Z,1009.59
2018-09-09T00:53:57.664Z,1009.60
2018-09-09T00:54:57.662Z,1009.64
2018-09-09T00:55:57.658Z,1009.62
2018-09-09T00:56:57.656Z,1009.63
2018-09-09T00:57:57.652Z,1009.63
2018-09-09T00:58:57.654Z,1009.67
2018-09-09T00:59:57.653Z,1009.67
2018-09-09T01:00:57.647Z,1009.65
2018-09-09T01:01:57.647Z,1009.65
2018-09-09T01:02:57.647Z,1009.64
2018-09-09T01:03:57.645Z,1009.64
2018-09-09T01:04:57.643Z,1009.62
2018-09-09T01:05:57.641Z,1009.63
2018-09-09T01:06:57.640Z,1009.62
2018-09-09T01:07:57.639Z,1009.62
2018-09-09T01:08:57.638Z,1009.60
2018-09-09T01:09:57.635Z,1009.60
2018-09-09T01:10:57.633Z,1009.62
2018-09-09T01:11:57.632Z,1009.58
2018-09-09T01:12:57.631Z,1009.59
2018-09-09T01:13:57.629Z,1009.57
2018-09-09T01:14:57.629Z,1009.56
2018-09-09T01:15:57.627Z,1009.57
2018-09-09T01:16:57.625Z,1009.58
2018-09-09T01:17:57.623Z,1009.55
2018-09-09T01:18:57.624Z,1009.55
2018-09-09T01:19:57.622Z,1009.52
2018-09-09T01:20:57.619Z,1009.50
2018-09-09T01:21:57.616Z,1009.53
2018-09-09T01:22:57.617Z,1009.53
2018-09-09T01:23:57.615Z,1009.49
2018-09-09T01:24:57.611Z,1009.51
2018-09-09T01:25:57.610Z,1009.50
2018-09-09T01:26:57.610Z,1009.52
2018-09-09T01:27:57.607Z,1009.55
2018-09-09T01:28:57.608Z,1009.55
2018-09-09T01:29:57.605Z,1009.60
2018-09-09T01:30:57.649Z,1009.57
2018-09-09T01:31:57.608Z,1009.56
2018-09-09T01:32:57.603Z,1009.55
2018-09-09T01:33:57.597Z,1009.57
2018-09-09T01:34:57.596Z,1009.62
2018-09-09T01:35:57.595Z,1009.59
2018-09-09T01:36:57.592Z,1009.64
2018-09-09T01:37:57.592Z,1009.64
2018-09-09T01:38:57.590Z,1009.61
2018-09-09T01:39:57.589Z,1009.61
2018-09-09T01:40:57.586Z,1009.58
2018-09-09T01:41:57.592Z,1009.55
2018-09-09T01:42:57.585Z,1009.52
2018-09-09T01:43:57.581Z,1009.50
2018-09-09T01:44:57.582Z,1009.47
2018-09-09T01:45:57.583Z,1009.48
2018-09-09T01:46:57.577Z,1009.48
2018-09-09T01:47:57.576Z,1009.45
2018-09-09T01:48:57.573Z,1009.47
2018-09-09T01:49:57.572Z,1009.45
2018-09-09T01:50:57.571Z,1009.49
2018-09-09T01:51:57.570Z,1009.45
2018-09-09T01:52:57.567Z,1009.46
2018-09-09T01:53:57.566Z,1009.45
2018-09-09T01:54:57.564Z,1009.47
2018-09-09T01:55:57.563Z,1009.52
2018-09-09T01:56:57.560Z,1009.50
2018-09-09T01:57:57.558Z,1009.53
2018-09-09T01:58:57.558Z,1009.54
2018-09-09T01:59:57.557Z,1009.55
2018-09-09T02:00:57.554Z,1009.51
2018-09-09T02:01:57.553Z,1009.56
2018-09-09T02:02:57.552Z,1009.56
2018-09-09T02:03:57.551Z,1009.55
2018-09-09T02:04:57.548Z,1009.53
2018-09-09T02:05:57.547Z,1009.55
2018-09-09T02:06:57.545Z,1009.55
2018-09-09T02:07:57.544Z,1009.55
2018-09-09T02:08:57.543Z,1009.53
2018-09-09T02:09:57.540Z,1009.53
2018-09-09T02:10:57.539Z,1009.56
2018-09-09T02:11:57.538Z,1009.53
2018-09-09T02:12:57.539Z,1009.54
2018-09-09T02:13:57.537Z,1009.60
2018-09-09T02:14:57.533Z,1009.54
2018-09-09T02:15:57.532Z,1009.51
2018-09-09T02:16:57.528Z,1009.55
2018-09-09T02:17:57.528Z,1009.56
2018-09-09T02:18:57.526Z,1009.56
2018-09-09T02:19:57.529Z,1009.56
2018-09-09T02:20:57.522Z,1009.55
2018-09-09T02:21:57.522Z,1009.61
2018-09-09T02:22:57.520Z,1009.64
2018-09-09T02:23:57.517Z,1009.64
2018-09-09T02:24:57.515Z,1009.62
2018-09-09T02:25:57.589Z,1009.66
2018-09-09T02:26:57.513Z,1009.66
2018-09-09T02:27:57.513Z,1009.70
2018-09-09T02:28:57.510Z,1009.66
2018-09-09T02:29:57.509Z,1009.61
2018-09-09T02:30:57.507Z,1009.62
2018-09-09T02:31:57.507Z,1009.62
2018-09-09T02:32:57.503Z,1009.63
2018-09-09T02:33:57.501Z,1009.63
2018-09-09T02:34:57.501Z,1009.61
2018-09-09T02:35:57.500Z,1009.57
2018-09-09T02:36:57.497Z,1009.56
2018-09-09T02:37:57.500Z,1009.52
2018-09-09T02:38:57.496Z,1009.45
2018-09-09T02:39:57.493Z,1009.44
2018-09-09T02:40:57.492Z,1009.44
2018-09-09T02:41:57.492Z,1009.39
2018-09-09T02:42:57.488Z,1009.41
2018-09-09T02:43:57.488Z,1009.44
2018-09-09T02:44:57.486Z,1009.49
2018-09-09T02:45:57.485Z,1009.51
2018-09-09T02:46:57.484Z,1009.51
2018-09-09T02:47:57.483Z,1009.49
2018-09-09T02:48:57.479Z,1009.48
2018-09-09T02:49:57.478Z,1009.48
2018-09-09T02:50:57.477Z,1009.50
2018-09-09T02:51:57.475Z,1009.47
2018-09-09T02:52:57.473Z,1009.49
2018-09-09T02:53:57.472Z,1009.49
2018-09-09T02:54:57.476Z,1009.53
2018-09-09T02:55:57.469Z,1009.54
2018-09-09T02:56:57.466Z,1009.51
2018-09-09T02:57:57.464Z,1009.54
2018-09-09T02:58:57.467Z,1009.54
2018-09-09T02:59:57.463Z,1009.55
2018-09-09T03:00:57.463Z,1009.54
2018-09-09T03:01:57.459Z,1009.56
2018-09-09T03:02:57.457Z,1009.59
2018-09-09T03:03:57.458Z,1009.61
2018-09-09T03:04:57.454Z,1009.62
2018-09-09T03:05:57.451Z,1009.60
2018-09-09T03:06:57.450Z,1009.57
2018-09-09T03:07:57.449Z,1009.62
2018-09-09T03:08:57.447Z,1009.56
2018-09-09T03:09:57.448Z,1009.52
2018-09-09T03:10:57.445Z,1009.53
2018-09-09T03:11:57.449Z,1009.55
2018-09-09T03:12:57.441Z,1009.54
2018-09-09T03:13:57.439Z,1009.55
2018-09-09T03:14:57.438Z,1009.55
2018-09-09T03:15:57.438Z,1009.48
2018-09-09T03:16:57.435Z,1009.38
2018-09-09T03:17:57.435Z,1009.35
2018-09-09T03:18:57.431Z,1009.30
2018-09-09T03:19:57.430Z,1009.24
2018-09-09T03:20:57.428Z,1009.26
2018-09-09T03:21:57.427Z,1009.27
2018-09-09T03:22:57.425Z,1009.23
2018-09-09T03:23:57.424Z,1009.35
2018-09-09T03:24:57.423Z,1009.34
2018-09-09T03:25:57.420Z,1009.36
2018-09-09T03:26:57.427Z,1009.39
2018-09-09T03:27:57.418Z,1009.41
2018-09-09T03:28:57.416Z,1009.44
2018-09-09T03:29:57.415Z,1009.44
2018-09-09T03:30:57.417Z,1009.46
2018-09-09T03:31:57.411Z,1009.47
2018-09-09T03:32:57.449Z,1009.47
2018-09-09T03:33:57.414Z,1009.47
2018-09-09T03:34:57.407Z,1009.47
2018-09-09T03:35:57.406Z,1009.43
2018-09-09T03:36:57.403Z,1009.46
2018-09-09T03:37:57.402Z,1009.48
2018-09-09T03:38:57.401Z,1009.50
2018-09-09T03:39:57.400Z,1009.48
2018-09-09T03:40:57.398Z,1009.48
2018-09-09T03:41:57.397Z,1009.47
2018-09-09T03:42:57.393Z,1009.49
2018-09-09T03:43:57.391Z,1009.50
2018-09-09T03:44:57.391Z,1009.47
2018-09-09T03:45:57.389Z,1009.49
2018-09-09T03:46:57.387Z,1009.49
2018-09-09T03:47:57.386Z,1009.47
2018-09-09T03:48:57.383Z,1009.52
2018-09-09T03:49:57.383Z,1009.52
2018-09-09T03:50:57.381Z,1009.50
2018-09-09T03:51:57.380Z,1009.52
2018-09-09T03:52:57.376Z,1009.46
2018-09-09T03:53:57.376Z,1009.45
2018-09-09T03:54:57.375Z,1009.48
2018-09-09T03:55:57.374Z,1009.47
2018-09-09T03:56:57.373Z,1009.47
2018-09-09T03:57:57.369Z,1009.46
2018-09-09T03:58:57.368Z,1009.48
2018-09-09T03:59:57.368Z,1009.51
2018-09-09T04:00:57.365Z,1009.48
2018-09-09T04:01:57.365Z,1009.47
2018-09-09T04:02:57.362Z,1009.49
2018-09-09T04:03:57.361Z,1009.47
2018-09-09T04:04:57.359Z,1009.53
2018-09-09T04:05:57.358Z,1009.53
2018-09-09T04:06:57.356Z,1009.50
2018-09-09T04:07:57.355Z,1009.48
2018-09-09T04:08:57.354Z,1009.45
2018-09-09T04:09:57.369Z,1009.48
2018-09-09T04:10:57.350Z,1009.51
2018-09-09T04:11:57.357Z,1009.49
2018-09-09T04:12:57.346Z,1009.52
2018-09-09T04:13:57.345Z,1009.51
2018-09-09T04:14:57.345Z,1009.48
2018-09-09T04:15:57.343Z,1009.52
2018-09-09T04:16:57.340Z,1009.52
2018-09-09T04:17:57.339Z,1009.53
2018-09-09T04:18:57.337Z,1009.52
2018-09-09T04:19:57.336Z,1009.55
2018-09-09T04:20:57.334Z,1009.52
2018-09-09T04:21:57.334Z,1009.55
2018-09-09T04:22:57.330Z,1009.54
2018-09-09T04:23:57.330Z,1009.52
2018-09-09T04:24:57.329Z,1009.56
2018-09-09T04:25:57.337Z,1009.60
2018-09-09T04:26:57.327Z,1009.60
2018-09-09T04:27:57.323Z,1009.58
2018-09-09T04:28:57.322Z,1009.55
2018-09-09T04:29:57.320Z,1009.55
2018-09-09T04:30:57.342Z,1009.55
2018-09-09T04:31:57.317Z,1009.57
2018-09-09T04:32:57.317Z,1009.58
2018-09-09T04:33:57.323Z,1009.55
2018-09-09T04:34:57.312Z,1009.54
2018-09-09T04:35:57.312Z,1009.52
2018-09-09T04:36:57.309Z,1009.47
2018-09-09T04:37:57.308Z,1009.52
2018-09-09T04:38:57.306Z,1009.51
2018-09-09T04:39:57.306Z,1009.51
2018-09-09T04:40:57.303Z,1009.54
2018-09-09T04:41:57.301Z,1009.53
2018-09-09T04:42:57.301Z,1009.54
2018-09-09T04:43:57.300Z,1009.48
2018-09-09T04:44:57.297Z,1009.50
2018-09-09T04:45:57.295Z,1009.53
2018-09-09T04:46:57.295Z,1009.52
2018-09-09T04:47:57.294Z,1009.54
2018-09-09T04:48:57.291Z,1009.57
2018-09-09T04:49:57.291Z,1009.59
2018-09-09T04:50:57.288Z,1009.60
2018-09-09T04:51:57.286Z,1009.58
2018-09-09T04:52:57.284Z,1009.57
2018-09-09T04:53:57.284Z,1009.61
2018-09-09T04:54:57.281Z,1009.63
2018-09-09T04:55:57.279Z,1009.64
2018-09-09T04:56:57.278Z,1009.62
2018-09-09T04:57:57.278Z,1009.64
2018-09-09T04:58:57.275Z,1009.65
2018-09-09T04:59:57.275Z,1009.58
2018-09-09T05:00:57.272Z,1009.62
2018-09-09T05:01:57.270Z,1009.61
2018-09-09T05:02:57.269Z,1009.64
2018-09-09T05:03:57.269Z,1009.70
2018-09-09T05:04:57.266Z,1009.75
2018-09-09T05:05:57.264Z,1009.75
2018-09-09T05:06:57.263Z,1009.77
2018-09-09T05:07:57.262Z,1009.79
2018-09-09T05:08:57.258Z,1009.86
2018-09-09T05:09:57.258Z,1009.88
2018-09-09T05:10:57.256Z,1009.80
2018-09-09T05:11:57.256Z,1009.82
2018-09-09T05:12:57.252Z,1009.86
2018-09-09T05:13:57.251Z,1009.82
2018-09-09T05:14:57.250Z,1009.81
2018-09-09T05:15:57.249Z,1009.85
2018-09-09T05:16:57.247Z,1009.84
2018-09-09T05:17:57.244Z,1009.83
2018-09-09T05:18:57.244Z,1009.83
2018-09-09T05:19:57.241Z,1009.82
2018-09-09T05:20:57.240Z,1009.81
2018-09-09T05:21:57.241Z,1009.81
2018-09-09T05:22:57.236Z,1009.81
2018-09-09T05:23:57.236Z,1009.80
2018-09-09T05:24:57.231Z,1009.83
2018-09-09T05:25:57.233Z,1009.79
2018-09-09T05:26:57.278Z,1009.85
2018-09-09T05:27:57.230Z,1009.86
2018-09-09T05:28:57.229Z,1009.89
2018-09-09T05:29:57.229Z,1009.89
2018-09-09T05:30:57.225Z,1009.93
2018-09-09T05:31:57.223Z,1009.90
2018-09-09T05:32:57.220Z,1009.90
2018-09-09T05:33:57.221Z,1009.90
2018-09-09T05:34:57.219Z,1009.87
2018-09-09T05:35:57.217Z,1009.83
2018-09-09T05:36:57.216Z,1009.85
2018-09-09T05:37:57.216Z,1009.89
2018-09-09T05:38:57.212Z,1009.89
2018-09-09T05:39:57.211Z,1009.91
2018-09-09T05:40:57.209Z,1009.94
2018-09-09T05:41:57.209Z,1009.95
2018-09-09T05:42:57.208Z,1009.95
2018-09-09T05:43:57.206Z,1009.94
2018-09-09T05:44:57.204Z,1009.97
2018-09-09T05:45:57.250Z,1010.01
2018-09-09T05:46:57.201Z,1009.95
2018-09-09T05:47:57.201Z,1009.98
2018-09-09T05:48:57.199Z,1010.00
2018-09-09T05:49:57.199Z,1009.96
2018-09-09T05:50:57.196Z,1009.99
2018-09-09T05:51:57.196Z,1009.96
2018-09-09T05:52:57.195Z,1009.99
2018-09-09T05:53:57.283Z,1010.00
2018-09-09T05:54:57.192Z,1010.00
2018-09-09T05:55:57.198Z,1010.01
2018-09-09T05:56:57.188Z,1010.01
2018-09-09T05:57:57.187Z,1009.99
2018-09-09T05:58:57.192Z,1010.00
2018-09-09T05:59:57.187Z,1009.97
2018-09-09T06:00:57.182Z,1009.98
2018-09-09T06:01:57.184Z,1009.92
2018-09-09T06:02:57.183Z,1009.98
2018-09-09T06:03:57.182Z,1010.02
2018-09-09T06:04:57.179Z,1009.99
2018-09-09T06:05:57.179Z,1010.00
2018-09-09T06:06:57.177Z,1010.03
2018-09-09T06:07:57.180Z,1010.06
2018-09-09T06:08:57.177Z,1010.11
2018-09-09T06:09:57.176Z,1010.10
2018-09-09T06:10:57.175Z,1010.08
2018-09-09T06:11:57.174Z,1010.12
2018-09-09T06:12:57.176Z,1010.15
2018-09-09T06:13:57.173Z,1010.16
2018-09-09T06:14:57.171Z,1010.14
2018-09-09T06:15:57.170Z,1010.18
2018-09-09T06:16:57.170Z,1010.19
2018-09-09T06:17:57.171Z,1010.21
2018-09-09T06:18:57.169Z,1010.22
2018-09-09T06:19:57.168Z,1010.21
2018-09-09T06:20:57.167Z,1010.19
2018-09-09T06:21:57.166Z,1010.17
2018-09-09T06:22:57.167Z,1010.20
2018-09-09T06:23:57.167Z,1010.21
2018-09-09T06:24:57.164Z,1010.24
2018-09-09T06:25:57.165Z,1010.26
2018-09-09T06:26:57.163Z,1010.28
2018-09-09T06:27:57.164Z,1010.24
2018-09-09T06:28:57.163Z,1010.22
2018-09-09T06:29:57.161Z,1010.25
2018-09-09T06:30:57.162Z,1010.30
2018-09-09T06:31:57.162Z,1010.31
2018-09-09T06:32:57.165Z,1010.27
2018-09-09T06:33:57.208Z,1010.26
2018-09-09T06:34:57.161Z,1010.24
2018-09-09T06:35:57.160Z,1010.27
2018-09-09T06:36:57.160Z,1010.25
2018-09-09T06:37:57.159Z,1010.27
2018-09-09T06:38:57.186Z,1010.18
2018-09-09T06:39:57.159Z,1010.20
2018-09-09T06:40:57.159Z,1010.21
2018-09-09T06:41:57.159Z,1010.25
2018-09-09T06:42:57.159Z,1010.24
2018-09-09T06:43:57.158Z,1010.26
2018-09-09T06:44:57.160Z,1010.25
2018-09-09T06:45:57.159Z,1010.22
2018-09-09T06:46:57.159Z,1010.23
2018-09-09T06:47:57.967Z,1010.24
2018-09-09T06:48:57.159Z,1010.31
2018-09-09T06:49:57.157Z,1010.37
2018-09-09T06:50:57.160Z,1010.40
2018-09-09T06:51:57.160Z,1010.38
2018-09-09T06:52:57.159Z,1010.38
2018-09-09T06:53:57.159Z,1010.41
2018-09-09T06:54:57.186Z,1010.44
2018-09-09T06:55:57.160Z,1010.42
2018-09-09T06:56:57.160Z,1010.41
2018-09-09T06:57:57.161Z,1010.42
2018-09-09T06:58:57.161Z,1010.37
2018-09-09T06:59:57.161Z,1010.38
2018-09-09T07:00:57.162Z,1010.39
2018-09-09T07:01:57.161Z,1010.39
2018-09-09T07:02:57.162Z,1010.40
2018-09-09T07:03:57.165Z,1010.45
2018-09-09T07:04:57.164Z,1010.46
2018-09-09T07:05:57.164Z,1010.46
2018-09-09T07:06:57.164Z,1010.48
2018-09-09T07:07:57.166Z,1010.45
2018-09-09T07:08:57.166Z,1010.49
2018-09-09T07:09:57.167Z,1010.48
2018-09-09T07:10:57.270Z,1010.43
2018-09-09T07:11:57.268Z,1010.41
2018-09-09T07:12:57.171Z,1010.48
2018-09-09T07:13:57.169Z,1010.45
2018-09-09T07:14:57.171Z,1010.40
2018-09-09T07:15:57.176Z,1010.43
2018-09-09T07:16:57.185Z,1010.42
2018-09-09T07:17:57.176Z,1010.46
2018-09-09T07:18:57.221Z,1010.45
2018-09-09T07:19:57.178Z,1010.47
2018-09-09T07:20:57.178Z,1010.45
2018-09-09T07:21:57.179Z,1010.49
2018-09-09T07:22:57.181Z,1010.49
2018-09-09T07:23:57.181Z,1010.47
2018-09-09T07:24:57.182Z,1010.45
2018-09-09T07:25:57.183Z,1010.51
2018-09-09T07:26:57.184Z,1010.50
2018-09-09T07:27:57.185Z,1010.50
2018-09-09T07:28:57.185Z,1010.47
2018-09-09T07:29:57.185Z,1010.47
2018-09-09T07:30:57.189Z,1010.46
2018-09-09T07:31:57.189Z,1010.49
2018-09-09T07:32:57.192Z,1010.52
2018-09-09T07:33:57.190Z,1010.52
2018-09-09T07:34:57.193Z,1010.55
2018-09-09T07:35:57.192Z,1010.57
2018-09-09T07:36:57.192Z,1010.55
2018-09-09T07:37:57.192Z,1010.58
2018-09-09T07:38:57.195Z,1010.62
2018-09-09T07:39:57.195Z,1010.61
2018-09-09T07:40:57.196Z,1010.62
2018-09-09T07:41:57.196Z,1010.60
2018-09-09T07:42:57.198Z,1010.62
2018-09-09T07:43:57.199Z,1010.62
2018-09-09T07:44:57.199Z,1010.59
2018-09-09T07:45:57.199Z,1010.63
2018-09-09T07:46:57.200Z,1010.63
2018-09-09T07:47:57.225Z,1010.63
2018-09-09T07:48:57.202Z,1010.69
2018-09-09T07:49:57.204Z,1010.70
2018-09-09T07:50:57.203Z,1010.73
2018-09-09T07:51:57.204Z,1010.73
2018-09-09T07:52:57.204Z,1010.71
2018-09-09T07:53:57.204Z,1010.76
2018-09-09T07:54:57.206Z,1010.76
2018-09-09T07:55:57.208Z,1010.78
2018-09-09T07:56:57.208Z,1010.80
2018-09-09T07:57:57.209Z,1010.81
2018-09-09T07:58:57.213Z,1010.81
2018-09-09T07:59:57.212Z,1010.85
2018-09-09T08:00:57.210Z,1010.80
2018-09-09T08:01:57.214Z,1010.77
2018-09-09T08:02:57.216Z,1010.77
2018-09-09T08:03:57.214Z,1010.75
2018-09-09T08:04:57.216Z,1010.69
2018-09-09T08:05:57.217Z,1010.70
2018-09-09T08:06:57.218Z,1010.73
2018-09-09T08:07:57.219Z,1010.64
2018-09-09T08:08:57.219Z,1010.60
2018-09-09T08:09:57.221Z,1010.58
2018-09-09T08:10:57.223Z,1010.58
2018-09-09T08:11:57.259Z,1010.62
2018-09-09T08:12:57.224Z,1010.68
2018-09-09T08:13:57.227Z,1010.70
2018-09-09T08:14:57.233Z,1010.67
2018-09-09T08:15:57.228Z,1010.69
2018-09-09T08:16:57.229Z,1010.67
2018-09-09T08:17:57.232Z,1010.70
2018-09-09T08:18:57.233Z,1010.73
2018-09-09T08:19:57.237Z,1010.76
2018-09-09T08:20:57.236Z,1010.76
2018-09-09T08:21:57.238Z,1010.74
2018-09-09T08:22:57.239Z,1010.77
2018-09-09T08:23:57.242Z,1010.73
2018-09-09T08:24:57.243Z,1010.78
2018-09-09T08:25:57.244Z,1010.73
2018-09-09T08:26:57.253Z,1010.79
2018-09-09T08:27:57.249Z,1010.81
2018-09-09T08:28:57.251Z,1010.86
2018-09-09T08:29:57.252Z,1010.80
2018-09-09T08:30:57.255Z,1010.77
2018-09-09T08:31:57.257Z,1010.79
2018-09-09T08:32:57.261Z,1010.78
2018-09-09T08:33:57.262Z,1010.79
2018-09-09T08:34:57.265Z,1010.79
2018-09-09T08:35:57.267Z,1010.78
2018-09-09T08:36:57.270Z,1010.83
2018-09-09T08:37:57.277Z,1010.87
2018-09-09T08:38:57.275Z,1010.87
2018-09-09T08:39:57.278Z,1010.78
2018-09-09T08:40:57.282Z,1010.81
2018-09-09T08:41:57.284Z,1010.83
2018-09-09T08:42:57.286Z,1010.82
2018-09-09T08:43:57.292Z,1010.83
2018-09-09T08:44:57.293Z,1010.85
2018-09-09T08:45:57.295Z,1010.87
2018-09-09T08:46:57.299Z,1010.84
2018-09-09T08:47:57.301Z,1010.92
2018-09-09T08:48:57.304Z,1010.96
2018-09-09T08:49:57.306Z,1010.98
2018-09-09T08:50:57.312Z,1010.98
2018-09-09T08:51:57.409Z,1011.03
2018-09-09T08:52:57.317Z,1011.03
2018-09-09T08:53:57.321Z,1011.03
2018-09-09T08:54:57.324Z,1010.97
2018-09-09T08:55:57.329Z,1010.96
2018-09-09T08:56:57.330Z,1010.90
2018-09-09T08:57:57.334Z,1010.88
2018-09-09T08:58:57.341Z,1010.89
2018-09-09T08:59:57.343Z,1010.88
2018-09-09T09:00:57.346Z,1010.88
2018-09-09T09:01:57.349Z,1010.86
2018-09-09T09:02:57.352Z,1010.87
2018-09-09T09:03:57.357Z,1010.90
2018-09-09T09:04:57.359Z,1010.87
2018-09-09T09:05:57.363Z,1010.84
2018-09-09T09:06:57.367Z,1010.83
2018-09-09T09:07:57.419Z,1010.96
2018-09-09T09:08:57.375Z,1011.33
2018-09-09T09:09:57.380Z,1011.17
2018-09-09T09:10:57.429Z,1011.05
2018-09-09T09:11:57.389Z,1011.00
2018-09-09T09:12:57.391Z,1010.94
2018-09-09T09:13:57.396Z,1010.93
2018-09-09T09:14:57.401Z,1010.91
2018-09-09T09:15:57.407Z,1010.93
2018-09-09T09:16:57.410Z,1010.97
2018-09-09T09:17:57.415Z,1010.96
2018-09-09T09:18:57.422Z,1011.12
2018-09-09T09:19:57.425Z,1011.03
2018-09-09T09:20:57.431Z,1011.09
2018-09-09T09:21:57.437Z,1011.05
2018-09-09T09:22:57.440Z,1011.14
2018-09-09T09:23:57.447Z,1011.02
2018-09-09T09:24:57.452Z,1011.00
2018-09-09T09:25:57.457Z,1010.99
2018-09-09T09:26:57.464Z,1011.02
2018-09-09T09:27:57.469Z,1011.00
2018-09-09T09:28:57.474Z,1011.02
2018-09-09T09:29:57.481Z,1010.94
2018-09-09T09:30:57.486Z,1011.00
2018-09-09T09:31:57.494Z,1011.01
2018-09-09T09:32:57.499Z,1011.07
2018-09-09T09:33:57.504Z,1011.13
2018-09-09T09:34:57.510Z,1011.16
2018-09-09T09:35:57.517Z,1011.29
2018-09-09T09:36:57.522Z,1011.25
2018-09-09T09:37:57.528Z,1011.33
2018-09-09T09:38:57.534Z,1011.30
2018-09-09T09:39:57.539Z,1011.17
2018-09-09T09:40:57.546Z,1011.55
2018-09-09T09:41:57.551Z,1011.23
2018-09-09T09:42:57.559Z,1011.23
2018-09-09T09:43:57.565Z,1011.09
2018-09-09T09:44:57.571Z,1011.12
2018-09-09T09:45:57.577Z,1011.14
2018-09-09T09:46:57.585Z,1011.08
2018-09-09T09:47:57.592Z,1011.03
2018-09-09T09:48:57.598Z,1011.03
2018-09-09T09:49:57.603Z,1011.00
2018-09-09T09:50:57.610Z,1010.92
2018-09-09T09:51:57.618Z,1010.98
2018-09-09T09:52:57.624Z,1010.97
2018-09-09T09:53:57.632Z,1010.98
2018-09-09T09:54:57.662Z,1011.03
2018-09-09T09:55:57.642Z,1010.97
2018-09-09T09:56:57.650Z,1010.92
2018-09-09T09:57:57.655Z,1011.06
2018-09-09T09:58:57.662Z,1011.07
2018-09-09T09:59:57.669Z,1010.99
2018-09-09T10:00:57.674Z,1011.16
2018-09-09T10:01:57.680Z,1011.22
2018-09-09T10:02:57.687Z,1011.25
2018-09-09T10:03:57.694Z,1011.56
2018-09-09T10:04:57.699Z,1011.57
2018-09-09T10:05:57.705Z,1011.59
2018-09-09T10:06:57.713Z,1011.54
2018-09-09T10:07:57.719Z,1011.45
2018-09-09T10:08:57.747Z,1011.60
2018-09-09T10:09:57.733Z,1011.55
2018-09-09T10:10:57.742Z,1011.19
2018-09-09T10:11:57.748Z,1011.32
2018-09-09T10:12:57.756Z,1011.45
2018-09-09T10:13:57.762Z,1011.54
2018-09-09T10:14:57.777Z,1011.59
2018-09-09T10:15:57.782Z,1011.61
2018-09-09T10:16:57.789Z,1011.85
2018-09-09T10:17:57.795Z,1011.63
2018-09-09T10:18:57.804Z,1011.39
2018-09-09T10:19:57.813Z,1011.56
2018-09-09T10:20:57.820Z,1011.90
2018-09-09T10:21:57.830Z,1011.58
2018-09-09T10:22:57.842Z,1011.54
2018-09-09T10:23:57.849Z,1011.66
2018-09-09T10:24:57.857Z,1011.35
2018-09-09T10:25:57.866Z,1011.17
2018-09-09T10:26:57.880Z,1011.27
2018-09-09T10:27:57.886Z,1011.12
2018-09-09T10:28:57.895Z,1011.22
2018-09-09T10:29:57.940Z,1011.21
2018-09-09T10:30:57.914Z,1011.23
2018-09-09T10:31:57.923Z,1011.27
2018-09-09T10:32:57.932Z,1011.48
2018-09-09T10:33:57.940Z,1011.52
2018-09-09T10:34:57.951Z,1011.44
2018-09-09T10:35:57.962Z,1011.31
2018-09-09T10:36:57.966Z,1011.41
2018-09-09T10:37:57.975Z,1011.39
2018-09-09T10:38:57.986Z,1011.47
2018-09-09T10:39:57.992Z,1011.26
2018-09-09T10:40:58.044Z,1011.16
2018-09-09T10:41:58.013Z,1011.17
2018-09-09T10:42:58.017Z,1011.24
2018-09-09T10:43:58.026Z,1011.18
2018-09-09T10:44:58.032Z,1011.18
2018-09-09T10:45:58.073Z,1011.14
2018-09-09T10:46:58.058Z,1011.09
2018-09-09T10:47:58.058Z,1011.08
2018-09-09T10:48:58.066Z,1011.04
2018-09-09T10:49:58.072Z,1011.10
2018-09-09T10:50:58.082Z,1011.09
2018-09-09T10:51:58.088Z,1011.06
2018-09-09T10:52:58.094Z,1011.07
2018-09-09T10:53:58.101Z,1011.08
2018-09-09T10:54:58.109Z,1011.07
2018-09-09T10:55:58.121Z,1011.09
2018-09-09T10:56:58.123Z,1011.07
2018-09-09T10:57:58.130Z,1011.14
2018-09-09T10:58:58.137Z,1011.09
2018-09-09T10:59:58.144Z,1011.08
2018-09-09T11:00:58.149Z,1011.07
2018-09-09T11:01:58.155Z,1011.14
2018-09-09T11:02:58.169Z,1011.08
2018-09-09T11:03:58.170Z,1011.11
2018-09-09T11:04:58.177Z,1011.12
2018-09-09T11:05:58.181Z,1011.07
2018-09-09T11:06:58.191Z,1011.15
2018-09-09T11:07:58.192Z,1011.08
2018-09-09T11:08:58.198Z,1011.14
2018-09-09T11:09:58.206Z,1011.07
2018-09-09T11:10:58.209Z,1011.03
2018-09-09T11:11:58.217Z,1011.03
2018-09-09T11:12:58.288Z,1011.04
2018-09-09T11:13:58.230Z,1011.03
2018-09-09T11:14:58.233Z,1011.06
2018-09-09T11:15:58.242Z,1011.08
2018-09-09T11:16:58.243Z,1011.06
2018-09-09T11:17:58.253Z,1011.13
2018-09-09T11:18:58.333Z,1011.13
2018-09-09T11:19:58.261Z,1011.21
2018-09-09T11:20:58.266Z,1011.13
2018-09-09T11:21:58.274Z,1011.13
2018-09-09T11:22:58.279Z,1011.12
2018-09-09T11:23:58.304Z,1011.11
2018-09-09T11:24:58.288Z,1011.11
2018-09-09T11:25:58.292Z,1011.07
2018-09-09T11:26:58.300Z,1011.04
2018-09-09T11:27:58.306Z,1011.06
2018-09-09T11:28:58.309Z,1011.06
2018-09-09T11:29:58.386Z,1011.06
2018-09-09T11:30:58.323Z,1011.00
2018-09-09T11:31:58.327Z,1011.02
2018-09-09T11:32:58.331Z,1011.00
2018-09-09T11:33:58.338Z,1011.02
2018-09-09T11:34:58.343Z,1011.00
2018-09-09T11:35:58.353Z,1011.00
2018-09-09T11:36:58.353Z,1010.94
2018-09-09T11:37:58.359Z,1010.96
2018-09-09T11:38:58.364Z,1010.95
2018-09-09T11:39:58.371Z,1010.92
2018-09-09T11:40:58.376Z,1010.87
2018-09-09T11:41:58.380Z,1010.89
2018-09-09T11:42:58.387Z,1010.87
2018-09-09T11:43:58.392Z,1010.79
2018-09-09T11:44:58.397Z,1010.80
2018-09-09T11:45:58.403Z,1010.84
2018-09-09T11:46:58.408Z,1010.76
2018-09-09T11:47:58.412Z,1010.76
2018-09-09T11:48:58.416Z,1010.73
2018-09-09T11:49:58.421Z,1010.72
2018-09-09T11:50:58.428Z,1010.73
2018-09-09T11:51:58.433Z,1010.75
2018-09-09T11:52:58.465Z,1010.77
2018-09-09T11:53:58.442Z,1010.82
2018-09-09T11:54:58.446Z,1010.87
2018-09-09T11:55:58.456Z,1010.81
2018-09-09T11:56:58.456Z,1010.83
2018-09-09T11:57:58.461Z,1010.86
2018-09-09T11:58:58.466Z,1010.84
2018-09-09T11:59:58.472Z,1010.81
2018-09-09T12:00:58.476Z,1010.81
2018-09-09T12:01:58.513Z,1010.82
2018-09-09T12:02:58.486Z,1010.82
2018-09-09T12:03:58.493Z,1010.77
2018-09-09T12:04:58.492Z,1010.74
2018-09-09T12:05:58.500Z,1010.74